sensor_id;sensor_type;location;lat;lon;timestamp;P1;durP1;ratioP1;P2;durP2;ratioP2
8636;SDS011;4356;49.068;8.658;2022-12-05T00:00:12;8.03;;;7.07;;
8636;SDS011;4356;49.068;8.658;2022-12-05T00:02:39;8.20;;;7.30;;
8636;SDS011;4356;49.068;8.658;2022-12-05T00:05:04;8.10;;;7.30;;
8636;SDS011;4356;49.068;8.658;2022-12-05T00:07:31;9.00;;;7.70;;
8636;SDS011;4356;49.068;8.658;2022-12-05T00:09:56;8.73;;;7.83;;
8636;SDS011;4356;49.068;8.658;2022-12-05T00:12:22;8.60;;;7.17;;
8636;SDS011;4356;49.068;8.658;2022-12-05T00:14:47;8.17;;;7.37;;
8636;SDS011;4356;49.068;8.658;2022-12-05T00:17:13;8.03;;;7.23;;
8636;SDS011;4356;49.068;8.658;2022-12-05T00:19:38;8.10;;;6.97;;
8636;SDS011;4356;49.068;8.658;2022-12-05T00:22:04;8.17;;;6.87;;
8636;SDS011;4356;49.068;8.658;2022-12-05T00:24:29;7.73;;;6.97;;
8636;SDS011;4356;49.068;8.658;2022-12-05T00:26:55;7.53;;;6.80;;
8636;SDS011;4356;49.068;8.658;2022-12-05T00:29:20;8.83;;;7.50;;
8636;SDS011;4356;49.068;8.658;2022-12-05T00:31:46;9.77;;;8.17;;
8636;SDS011;4356;49.068;8.658;2022-12-05T00:34:12;9.77;;;7.63;;
8636;SDS011;4356;49.068;8.658;2022-12-05T00:36:38;9.40;;;8.37;;
8636;SDS011;4356;49.068;8.658;2022-12-05T00:39:08;9.53;;;8.20;;
8636;SDS011;4356;49.068;8.658;2022-12-05T00:41:35;9.67;;;8.53;;
8636;SDS011;4356;49.068;8.658;2022-12-05T00:44:01;9.90;;;7.87;;
8636;SDS011;4356;49.068;8.658;2022-12-05T00:46:29;8.83;;;8.00;;
8636;SDS011;4356;49.068;8.658;2022-12-05T00:48:56;10.33;;;7.27;;
8636;SDS011;4356;49.068;8.658;2022-12-05T00:51:24;9.17;;;7.53;;
8636;SDS011;4356;49.068;8.658;2022-12-05T00:53:52;8.27;;;7.47;;
8636;SDS011;4356;49.068;8.658;2022-12-05T00:56:20;7.90;;;7.10;;
8636;SDS011;4356;49.068;8.658;2022-12-05T00:58:47;7.60;;;6.90;;
8636;SDS011;4356;49.068;8.658;2022-12-05T01:01:17;7.40;;;6.70;;
8636;SDS011;4356;49.068;8.658;2022-12-05T01:03:43;6.93;;;6.27;;
8636;SDS011;4356;49.068;8.658;2022-12-05T01:06:10;7.13;;;6.43;;
8636;SDS011;4356;49.068;8.658;2022-12-05T01:08:36;6.63;;;6.07;;
8636;SDS011;4356;49.068;8.658;2022-12-05T01:11:03;6.77;;;6.10;;
8636;SDS011;4356;49.068;8.658;2022-12-05T01:13:30;6.67;;;5.97;;
8636;SDS011;4356;49.068;8.658;2022-12-05T01:15:56;6.83;;;6.27;;
8636;SDS011;4356;49.068;8.658;2022-12-05T01:18:25;8.87;;;6.53;;
8636;SDS011;4356;49.068;8.658;2022-12-05T01:20:51;7.63;;;6.37;;
8636;SDS011;4356;49.068;8.658;2022-12-05T01:23:17;7.17;;;6.47;;
8636;SDS011;4356;49.068;8.658;2022-12-05T01:25:44;7.13;;;6.43;;
8636;SDS011;4356;49.068;8.658;2022-12-05T01:28:11;7.07;;;6.37;;
8636;SDS011;4356;49.068;8.658;2022-12-05T01:30:39;7.33;;;6.70;;
8636;SDS011;4356;49.068;8.658;2022-12-05T01:33:05;6.77;;;6.17;;
8636;SDS011;4356;49.068;8.658;2022-12-05T01:35:34;8.10;;;7.30;;
8636;SDS011;4356;49.068;8.658;2022-12-05T01:38:01;8.47;;;7.57;;
8636;SDS011;4356;49.068;8.658;2022-12-05T01:40:28;8.83;;;7.63;;
8636;SDS011;4356;49.068;8.658;2022-12-05T01:42:53;11.00;;;7.80;;
8636;SDS011;4356;49.068;8.658;2022-12-05T01:45:30;11.10;;;8.13;;
8636;SDS011;4356;49.068;8.658;2022-12-05T01:48:09;8.97;;;8.03;;
8636;SDS011;4356;49.068;8.658;2022-12-05T01:50:40;10.97;;;7.93;;
8636;SDS011;4356;49.068;8.658;2022-12-05T01:53:06;9.30;;;7.63;;
8636;SDS011;4356;49.068;8.658;2022-12-05T01:55:32;9.20;;;8.10;;
8636;SDS011;4356;49.068;8.658;2022-12-05T01:57:59;8.00;;;7.20;;
8636;SDS011;4356;49.068;8.658;2022-12-05T02:00:27;9.97;;;7.93;;
8636;SDS011;4356;49.068;8.658;2022-12-05T02:02:56;10.47;;;8.20;;
8636;SDS011;4356;49.068;8.658;2022-12-05T02:05:32;9.90;;;8.30;;
8636;SDS011;4356;49.068;8.658;2022-12-05T02:08:00;9.23;;;8.27;;
8636;SDS011;4356;49.068;8.658;2022-12-05T02:10:36;8.13;;;7.30;;
8636;SDS011;4356;49.068;8.658;2022-12-05T02:13:54;10.70;;;8.30;;
8636;SDS011;4356;49.068;8.658;2022-12-05T02:16:02;11.83;;;8.33;;
8636;SDS011;4356;49.068;8.658;2022-12-05T02:18:48;9.80;;;8.50;;
8636;SDS011;4356;49.068;8.658;2022-12-05T02:34:57;12.33;;;9.30;;
8636;SDS011;4356;49.068;8.658;2022-12-05T02:40:09;11.67;;;9.30;;
8636;SDS011;4356;49.068;8.658;2022-12-05T02:42:52;12.20;;;9.63;;
8636;SDS011;4356;49.068;8.658;2022-12-05T02:45:19;11.77;;;8.97;;
8636;SDS011;4356;49.068;8.658;2022-12-05T02:47:50;11.00;;;9.07;;
8636;SDS011;4356;49.068;8.658;2022-12-05T02:50:19;12.13;;;8.83;;
8636;SDS011;4356;49.068;8.658;2022-12-05T02:52:48;11.67;;;8.73;;
8636;SDS011;4356;49.068;8.658;2022-12-05T02:55:16;10.37;;;8.30;;
8636;SDS011;4356;49.068;8.658;2022-12-05T02:57:44;10.10;;;8.77;;
8636;SDS011;4356;49.068;8.658;2022-12-05T03:00:15;9.20;;;8.20;;
8636;SDS011;4356;49.068;8.658;2022-12-05T03:02:41;9.43;;;8.30;;
8636;SDS011;4356;49.068;8.658;2022-12-05T03:07:55;9.13;;;7.63;;
8636;SDS011;4356;49.068;8.658;2022-12-05T03:10:24;9.40;;;8.07;;
8636;SDS011;4356;49.068;8.658;2022-12-05T03:12:59;9.47;;;8.47;;
8636;SDS011;4356;49.068;8.658;2022-12-05T03:15:32;10.47;;;8.00;;
8636;SDS011;4356;49.068;8.658;2022-12-05T03:18:13;8.97;;;7.67;;
8636;SDS011;4356;49.068;8.658;2022-12-05T03:20:56;7.93;;;7.13;;
8636;SDS011;4356;49.068;8.658;2022-12-05T03:23:35;9.00;;;7.03;;
8636;SDS011;4356;49.068;8.658;2022-12-05T03:31:41;8.83;;;7.93;;
8636;SDS011;4356;49.068;8.658;2022-12-05T03:34:16;8.67;;;7.33;;
8636;SDS011;4356;49.068;8.658;2022-12-05T03:37:02;9.93;;;7.20;;
8636;SDS011;4356;49.068;8.658;2022-12-05T03:39:43;8.27;;;7.17;;
8636;SDS011;4356;49.068;8.658;2022-12-05T03:42:13;8.07;;;7.30;;
8636;SDS011;4356;49.068;8.658;2022-12-05T03:50:03;8.40;;;7.60;;
8636;SDS011;4356;49.068;8.658;2022-12-05T03:52:38;7.97;;;7.23;;
8636;SDS011;4356;49.068;8.658;2022-12-05T03:55:08;7.90;;;7.20;;
8636;SDS011;4356;49.068;8.658;2022-12-05T04:00:17;8.10;;;7.30;;
8636;SDS011;4356;49.068;8.658;2022-12-05T04:07:45;8.27;;;7.47;;
8636;SDS011;4356;49.068;8.658;2022-12-05T04:10:19;8.03;;;7.23;;
8636;SDS011;4356;49.068;8.658;2022-12-05T04:12:50;8.20;;;7.47;;
8636;SDS011;4356;49.068;8.658;2022-12-05T04:15:20;8.17;;;7.37;;
8636;SDS011;4356;49.068;8.658;2022-12-05T04:20:32;8.27;;;7.50;;
8636;SDS011;4356;49.068;8.658;2022-12-05T04:23:22;8.63;;;7.37;;
8636;SDS011;4356;49.068;8.658;2022-12-05T04:25:50;7.97;;;7.17;;
8636;SDS011;4356;49.068;8.658;2022-12-05T04:28:50;8.73;;;7.37;;
8636;SDS011;4356;49.068;8.658;2022-12-05T04:31:26;9.87;;;7.40;;
8636;SDS011;4356;49.068;8.658;2022-12-05T04:33:59;7.57;;;6.87;;
8636;SDS011;4356;49.068;8.658;2022-12-05T04:39:10;8.60;;;7.80;;
8636;SDS011;4356;49.068;8.658;2022-12-05T04:41:41;8.23;;;7.43;;
8636;SDS011;4356;49.068;8.658;2022-12-05T04:44:37;8.17;;;7.37;;
8636;SDS011;4356;49.068;8.658;2022-12-05T04:47:07;8.27;;;7.37;;
8636;SDS011;4356;49.068;8.658;2022-12-05T04:49:36;7.83;;;7.17;;
8636;SDS011;4356;49.068;8.658;2022-12-05T04:52:09;7.80;;;7.03;;
8636;SDS011;4356;49.068;8.658;2022-12-05T04:54:44;7.80;;;7.07;;
8636;SDS011;4356;49.068;8.658;2022-12-05T04:57:21;7.00;;;6.43;;
8636;SDS011;4356;49.068;8.658;2022-12-05T04:59:51;8.07;;;7.33;;
8636;SDS011;4356;49.068;8.658;2022-12-05T05:02:18;7.20;;;6.60;;
8636;SDS011;4356;49.068;8.658;2022-12-05T05:04:50;7.50;;;6.80;;
8636;SDS011;4356;49.068;8.658;2022-12-05T05:07:17;7.30;;;6.70;;
8636;SDS011;4356;49.068;8.658;2022-12-05T05:09:46;10.17;;;7.33;;
8636;SDS011;4356;49.068;8.658;2022-12-05T05:12:11;7.07;;;6.40;;
8636;SDS011;4356;49.068;8.658;2022-12-05T05:14:37;7.97;;;7.27;;
8636;SDS011;4356;49.068;8.658;2022-12-05T05:17:03;10.07;;;7.23;;
8636;SDS011;4356;49.068;8.658;2022-12-05T05:19:28;8.20;;;7.37;;
8636;SDS011;4356;49.068;8.658;2022-12-05T05:21:54;8.13;;;7.30;;
8636;SDS011;4356;49.068;8.658;2022-12-05T05:24:20;8.27;;;7.03;;
8636;SDS011;4356;49.068;8.658;2022-12-05T05:26:47;7.53;;;6.83;;
8636;SDS011;4356;49.068;8.658;2022-12-05T05:29:13;7.47;;;6.77;;
8636;SDS011;4356;49.068;8.658;2022-12-05T05:31:39;8.37;;;7.57;;
8636;SDS011;4356;49.068;8.658;2022-12-05T05:34:06;8.03;;;7.30;;
8636;SDS011;4356;49.068;8.658;2022-12-05T05:36:32;8.37;;;7.57;;
8636;SDS011;4356;49.068;8.658;2022-12-05T05:38:59;7.73;;;7.03;;
8636;SDS011;4356;49.068;8.658;2022-12-05T05:41:30;7.73;;;7.03;;
8636;SDS011;4356;49.068;8.658;2022-12-05T05:43:57;8.07;;;7.37;;
8636;SDS011;4356;49.068;8.658;2022-12-05T05:46:27;8.37;;;7.27;;
8636;SDS011;4356;49.068;8.658;2022-12-05T05:48:54;7.67;;;6.97;;
8636;SDS011;4356;49.068;8.658;2022-12-05T05:51:20;8.30;;;6.87;;
8636;SDS011;4356;49.068;8.658;2022-12-05T05:53:46;7.30;;;6.60;;
8636;SDS011;4356;49.068;8.658;2022-12-05T05:56:13;12.87;;;9.43;;
8636;SDS011;4356;49.068;8.658;2022-12-05T05:58:40;9.90;;;8.03;;
8636;SDS011;4356;49.068;8.658;2022-12-05T06:01:10;8.77;;;7.87;;
8636;SDS011;4356;49.068;8.658;2022-12-05T06:03:47;11.93;;;10.70;;
8636;SDS011;4356;49.068;8.658;2022-12-05T06:06:14;10.07;;;9.00;;
8636;SDS011;4356;49.068;8.658;2022-12-05T06:08:40;9.17;;;8.27;;
8636;SDS011;4356;49.068;8.658;2022-12-05T06:11:09;8.70;;;7.80;;
8636;SDS011;4356;49.068;8.658;2022-12-05T06:13:36;8.27;;;7.50;;
8636;SDS011;4356;49.068;8.658;2022-12-05T06:16:06;8.10;;;7.30;;
8636;SDS011;4356;49.068;8.658;2022-12-05T06:18:33;7.63;;;6.90;;
8636;SDS011;4356;49.068;8.658;2022-12-05T06:20:59;7.83;;;7.13;;
8636;SDS011;4356;49.068;8.658;2022-12-05T06:23:25;8.10;;;7.30;;
8636;SDS011;4356;49.068;8.658;2022-12-05T06:25:52;7.43;;;6.83;;
8636;SDS011;4356;49.068;8.658;2022-12-05T06:28:20;11.60;;;8.83;;
8636;SDS011;4356;49.068;8.658;2022-12-05T06:30:47;8.43;;;7.63;;
8636;SDS011;4356;49.068;8.658;2022-12-05T06:33:12;7.57;;;6.87;;
8636;SDS011;4356;49.068;8.658;2022-12-05T06:35:38;8.20;;;7.40;;
8636;SDS011;4356;49.068;8.658;2022-12-05T06:38:07;8.47;;;7.07;;
8636;SDS011;4356;49.068;8.658;2022-12-05T06:40:33;8.33;;;7.53;;
8636;SDS011;4356;49.068;8.658;2022-12-05T06:42:59;8.40;;;7.60;;
8636;SDS011;4356;49.068;8.658;2022-12-05T06:45:24;7.90;;;7.10;;
8636;SDS011;4356;49.068;8.658;2022-12-05T06:47:50;7.20;;;6.50;;
8636;SDS011;4356;49.068;8.658;2022-12-05T06:50:17;7.03;;;6.37;;
8636;SDS011;4356;49.068;8.658;2022-12-05T06:52:43;8.03;;;6.63;;
8636;SDS011;4356;49.068;8.658;2022-12-05T06:55:09;7.97;;;7.27;;
8636;SDS011;4356;49.068;8.658;2022-12-05T06:57:35;7.67;;;6.97;;
8636;SDS011;4356;49.068;8.658;2022-12-05T07:00:00;7.70;;;7.00;;
8636;SDS011;4356;49.068;8.658;2022-12-05T07:02:48;8.53;;;7.83;;
8636;SDS011;4356;49.068;8.658;2022-12-05T07:05:14;8.40;;;7.53;;
8636;SDS011;4356;49.068;8.658;2022-12-05T07:07:40;9.43;;;8.60;;
8636;SDS011;4356;49.068;8.658;2022-12-05T07:10:06;8.13;;;7.43;;
8636;SDS011;4356;49.068;8.658;2022-12-05T07:12:32;8.83;;;8.03;;
8636;SDS011;4356;49.068;8.658;2022-12-05T07:14:58;8.67;;;7.87;;
8636;SDS011;4356;49.068;8.658;2022-12-05T07:17:24;7.60;;;6.90;;
8636;SDS011;4356;49.068;8.658;2022-12-05T07:19:50;9.60;;;8.53;;
8636;SDS011;4356;49.068;8.658;2022-12-05T07:22:17;9.33;;;7.80;;
8636;SDS011;4356;49.068;8.658;2022-12-05T07:24:44;8.17;;;7.37;;
8636;SDS011;4356;49.068;8.658;2022-12-05T07:27:10;8.13;;;7.40;;
8636;SDS011;4356;49.068;8.658;2022-12-05T07:29:37;8.33;;;7.43;;
8636;SDS011;4356;49.068;8.658;2022-12-05T07:32:02;8.97;;;8.07;;
8636;SDS011;4356;49.068;8.658;2022-12-05T07:34:28;8.30;;;7.50;;
8636;SDS011;4356;49.068;8.658;2022-12-05T07:36:54;8.17;;;7.30;;
8636;SDS011;4356;49.068;8.658;2022-12-05T07:39:19;8.10;;;7.30;;
8636;SDS011;4356;49.068;8.658;2022-12-05T07:41:45;9.33;;;7.13;;
8636;SDS011;4356;49.068;8.658;2022-12-05T07:44:11;8.10;;;7.30;;
8636;SDS011;4356;49.068;8.658;2022-12-05T07:46:37;6.97;;;6.47;;
8636;SDS011;4356;49.068;8.658;2022-12-05T07:49:03;9.50;;;8.50;;
8636;SDS011;4356;49.068;8.658;2022-12-05T07:51:29;9.03;;;8.20;;
8636;SDS011;4356;49.068;8.658;2022-12-05T07:53:54;8.03;;;7.33;;
8636;SDS011;4356;49.068;8.658;2022-12-05T07:56:20;10.80;;;7.07;;
8636;SDS011;4356;49.068;8.658;2022-12-05T07:58:47;7.83;;;7.23;;
8636;SDS011;4356;49.068;8.658;2022-12-05T08:01:18;7.40;;;6.70;;
8636;SDS011;4356;49.068;8.658;2022-12-05T08:03:45;7.57;;;6.90;;
8636;SDS011;4356;49.068;8.658;2022-12-05T08:06:21;7.03;;;6.43;;
8636;SDS011;4356;49.068;8.658;2022-12-05T08:08:49;6.87;;;6.27;;
8636;SDS011;4356;49.068;8.658;2022-12-05T08:11:16;8.27;;;7.43;;
8636;SDS011;4356;49.068;8.658;2022-12-05T08:13:44;6.93;;;6.23;;
8636;SDS011;4356;49.068;8.658;2022-12-05T08:16:11;7.20;;;6.53;;
8636;SDS011;4356;49.068;8.658;2022-12-05T08:18:37;8.27;;;7.47;;
8636;SDS011;4356;49.068;8.658;2022-12-05T08:21:03;7.40;;;6.80;;
8636;SDS011;4356;49.068;8.658;2022-12-05T08:23:31;10.87;;;9.77;;
8636;SDS011;4356;49.068;8.658;2022-12-05T08:26:01;7.93;;;7.27;;
8636;SDS011;4356;49.068;8.658;2022-12-05T08:28:38;7.93;;;7.17;;
8636;SDS011;4356;49.068;8.658;2022-12-05T08:31:05;6.70;;;6.20;;
8636;SDS011;4356;49.068;8.658;2022-12-05T08:33:38;7.73;;;7.00;;
8636;SDS011;4356;49.068;8.658;2022-12-05T08:36:05;7.33;;;6.73;;
8636;SDS011;4356;49.068;8.658;2022-12-05T08:38:33;9.37;;;8.30;;
8636;SDS011;4356;49.068;8.658;2022-12-05T08:41:00;13.87;;;10.37;;
8636;SDS011;4356;49.068;8.658;2022-12-05T08:43:27;8.13;;;7.33;;
8636;SDS011;4356;49.068;8.658;2022-12-05T08:45:53;7.40;;;6.80;;
8636;SDS011;4356;49.068;8.658;2022-12-05T08:48:19;6.77;;;6.27;;
8636;SDS011;4356;49.068;8.658;2022-12-05T08:50:45;7.30;;;6.60;;
8636;SDS011;4356;49.068;8.658;2022-12-05T08:53:10;6.23;;;5.73;;
8636;SDS011;4356;49.068;8.658;2022-12-05T08:55:36;6.70;;;6.20;;
8636;SDS011;4356;49.068;8.658;2022-12-05T08:58:03;7.33;;;6.63;;
8636;SDS011;4356;49.068;8.658;2022-12-05T09:00:28;6.70;;;6.07;;
8636;SDS011;4356;49.068;8.658;2022-12-05T09:02:54;6.60;;;6.00;;
8636;SDS011;4356;49.068;8.658;2022-12-05T09:05:20;7.73;;;6.93;;
8636;SDS011;4356;49.068;8.658;2022-12-05T09:07:46;6.83;;;6.23;;
8636;SDS011;4356;49.068;8.658;2022-12-05T09:10:12;6.83;;;6.33;;
8636;SDS011;4356;49.068;8.658;2022-12-05T09:12:38;6.03;;;5.53;;
8636;SDS011;4356;49.068;8.658;2022-12-05T09:15:08;6.67;;;6.07;;
8636;SDS011;4356;49.068;8.658;2022-12-05T09:17:36;6.57;;;6.07;;
8636;SDS011;4356;49.068;8.658;2022-12-05T09:20:05;6.67;;;6.07;;
8636;SDS011;4356;49.068;8.658;2022-12-05T09:22:33;6.33;;;5.83;;
8636;SDS011;4356;49.068;8.658;2022-12-05T09:24:58;7.10;;;5.90;;
8636;SDS011;4356;49.068;8.658;2022-12-05T09:27:27;7.23;;;6.53;;
8636;SDS011;4356;49.068;8.658;2022-12-05T09:29:53;7.37;;;6.77;;
8636;SDS011;4356;49.068;8.658;2022-12-05T09:32:18;7.43;;;6.73;;
8636;SDS011;4356;49.068;8.658;2022-12-05T09:34:44;6.63;;;6.13;;
8636;SDS011;4356;49.068;8.658;2022-12-05T09:37:10;6.47;;;5.87;;
8636;SDS011;4356;49.068;8.658;2022-12-05T09:39:35;7.97;;;7.07;;
8636;SDS011;4356;49.068;8.658;2022-12-05T10:01:45;13.60;;;12.17;;
8636;SDS011;4356;49.068;8.658;2022-12-05T10:06:39;12.20;;;10.90;;
8636;SDS011;4356;49.068;8.658;2022-12-05T10:11:58;20.47;;;16.07;;
8636;SDS011;4356;49.068;8.658;2022-12-05T10:15:09;10.43;;;9.33;;
8636;SDS011;4356;49.068;8.658;2022-12-05T10:18:04;9.17;;;8.27;;
8636;SDS011;4356;49.068;8.658;2022-12-05T10:21:19;9.10;;;8.20;;
8636;SDS011;4356;49.068;8.658;2022-12-05T10:23:49;8.63;;;7.77;;
8636;SDS011;4356;49.068;8.658;2022-12-05T10:26:19;8.23;;;7.53;;
8636;SDS011;4356;49.068;8.658;2022-12-05T10:29:02;9.40;;;8.50;;
8636;SDS011;4356;49.068;8.658;2022-12-05T10:31:44;8.20;;;7.40;;
8636;SDS011;4356;49.068;8.658;2022-12-05T10:36:46;9.53;;;8.63;;
8636;SDS011;4356;49.068;8.658;2022-12-05T10:39:33;10.40;;;9.30;;
8636;SDS011;4356;49.068;8.658;2022-12-05T10:41:58;14.63;;;11.73;;
8636;SDS011;4356;49.068;8.658;2022-12-05T10:44:25;13.37;;;11.70;;
8636;SDS011;4356;49.068;8.658;2022-12-05T10:46:51;12.13;;;8.83;;
8636;SDS011;4356;49.068;8.658;2022-12-05T10:49:17;9.27;;;8.37;;
8636;SDS011;4356;49.068;8.658;2022-12-05T10:51:44;10.30;;;8.23;;
8636;SDS011;4356;49.068;8.658;2022-12-05T10:54:22;9.60;;;8.60;;
8636;SDS011;4356;49.068;8.658;2022-12-05T10:56:51;9.37;;;8.47;;
8636;SDS011;4356;49.068;8.658;2022-12-05T10:59:22;8.93;;;8.03;;
8636;SDS011;4356;49.068;8.658;2022-12-05T11:01:50;8.63;;;7.80;;
8636;SDS011;4356;49.068;8.658;2022-12-05T11:07:01;10.23;;;8.77;;
8636;SDS011;4356;49.068;8.658;2022-12-05T11:12:04;11.07;;;9.23;;
8636;SDS011;4356;49.068;8.658;2022-12-05T11:14:39;9.47;;;8.57;;
8636;SDS011;4356;49.068;8.658;2022-12-05T11:17:26;8.70;;;7.73;;
8636;SDS011;4356;49.068;8.658;2022-12-05T11:20:11;9.23;;;8.17;;
8636;SDS011;4356;49.068;8.658;2022-12-05T11:22:51;8.60;;;7.80;;
8636;SDS011;4356;49.068;8.658;2022-12-05T11:25:27;8.60;;;7.73;;
8636;SDS011;4356;49.068;8.658;2022-12-05T11:27:58;9.20;;;7.73;;
8636;SDS011;4356;49.068;8.658;2022-12-05T11:31:27;8.80;;;7.90;;
8636;SDS011;4356;49.068;8.658;2022-12-05T11:33:36;9.10;;;8.20;;
8636;SDS011;4356;49.068;8.658;2022-12-05T11:36:04;10.50;;;8.07;;
8636;SDS011;4356;49.068;8.658;2022-12-05T11:38:34;9.20;;;7.93;;
8636;SDS011;4356;49.068;8.658;2022-12-05T11:47:05;8.20;;;7.40;;
8636;SDS011;4356;49.068;8.658;2022-12-05T11:55:25;9.27;;;8.07;;
8636;SDS011;4356;49.068;8.658;2022-12-05T12:06:30;7.83;;;7.13;;
8636;SDS011;4356;49.068;8.658;2022-12-05T12:09:11;7.53;;;6.83;;
8636;SDS011;4356;49.068;8.658;2022-12-05T12:14:35;7.47;;;6.77;;
8636;SDS011;4356;49.068;8.658;2022-12-05T12:17:30;8.00;;;7.27;;
8636;SDS011;4356;49.068;8.658;2022-12-05T12:25:32;6.67;;;6.07;;
8636;SDS011;4356;49.068;8.658;2022-12-05T12:36:44;7.70;;;6.87;;
8636;SDS011;4356;49.068;8.658;2022-12-05T12:44:39;8.00;;;7.20;;
8636;SDS011;4356;49.068;8.658;2022-12-05T12:56:22;7.83;;;6.60;;
8636;SDS011;4356;49.068;8.658;2022-12-05T13:01:36;6.80;;;6.20;;
8636;SDS011;4356;49.068;8.658;2022-12-05T13:04:31;7.70;;;7.00;;
8636;SDS011;4356;49.068;8.658;2022-12-05T13:07:24;9.60;;;7.10;;
8636;SDS011;4356;49.068;8.658;2022-12-05T13:09:59;8.87;;;7.23;;
8636;SDS011;4356;49.068;8.658;2022-12-05T13:12:45;8.10;;;7.17;;
8636;SDS011;4356;49.068;8.658;2022-12-05T13:15:19;7.80;;;7.10;;
8636;SDS011;4356;49.068;8.658;2022-12-05T13:17:52;7.80;;;7.00;;
8636;SDS011;4356;49.068;8.658;2022-12-05T13:20:24;7.47;;;6.77;;
8636;SDS011;4356;49.068;8.658;2022-12-05T13:22:54;7.17;;;6.57;;
8636;SDS011;4356;49.068;8.658;2022-12-05T13:25:21;7.00;;;6.30;;
8636;SDS011;4356;49.068;8.658;2022-12-05T13:27:53;7.03;;;6.37;;
8636;SDS011;4356;49.068;8.658;2022-12-05T13:30:30;7.03;;;6.33;;
8636;SDS011;4356;49.068;8.658;2022-12-05T13:32:58;7.47;;;6.73;;
8636;SDS011;4356;49.068;8.658;2022-12-05T13:35:29;7.90;;;7.10;;
8636;SDS011;4356;49.068;8.658;2022-12-05T13:38:19;8.20;;;7.40;;
8636;SDS011;4356;49.068;8.658;2022-12-05T13:41:11;8.00;;;7.10;;
8636;SDS011;4356;49.068;8.658;2022-12-05T13:43:56;7.13;;;6.43;;
8636;SDS011;4356;49.068;8.658;2022-12-05T13:46:26;6.97;;;6.27;;
8636;SDS011;4356;49.068;8.658;2022-12-05T13:49:03;6.83;;;6.23;;
8636;SDS011;4356;49.068;8.658;2022-12-05T13:51:36;6.60;;;6.00;;
8636;SDS011;4356;49.068;8.658;2022-12-05T13:54:26;7.07;;;6.37;;
8636;SDS011;4356;49.068;8.658;2022-12-05T13:56:57;6.40;;;5.83;;
8636;SDS011;4356;49.068;8.658;2022-12-05T14:07:54;9.77;;;7.43;;
8636;SDS011;4356;49.068;8.658;2022-12-05T14:12:59;6.50;;;5.90;;
8636;SDS011;4356;49.068;8.658;2022-12-05T14:21:16;6.33;;;5.83;;
8636;SDS011;4356;49.068;8.658;2022-12-05T14:32:38;10.37;;;8.17;;
8636;SDS011;4356;49.068;8.658;2022-12-05T14:35:11;9.00;;;6.93;;
8636;SDS011;4356;49.068;8.658;2022-12-05T14:37:53;7.77;;;6.97;;
8636;SDS011;4356;49.068;8.658;2022-12-05T14:43:32;7.17;;;6.40;;
8636;SDS011;4356;49.068;8.658;2022-12-05T14:48:36;7.23;;;6.53;;
8636;SDS011;4356;49.068;8.658;2022-12-05T14:56:38;6.97;;;5.77;;
8636;SDS011;4356;49.068;8.658;2022-12-05T14:59:30;5.53;;;4.90;;
8636;SDS011;4356;49.068;8.658;2022-12-05T15:02:02;5.37;;;4.97;;
8636;SDS011;4356;49.068;8.658;2022-12-05T15:04:40;6.13;;;5.60;;
8636;SDS011;4356;49.068;8.658;2022-12-05T15:07:17;4.50;;;4.20;;
8636;SDS011;4356;49.068;8.658;2022-12-05T15:09:53;5.20;;;4.70;;
8636;SDS011;4356;49.068;8.658;2022-12-05T15:15:07;4.50;;;4.20;;
8636;SDS011;4356;49.068;8.658;2022-12-05T15:17:57;4.93;;;4.43;;
8636;SDS011;4356;49.068;8.658;2022-12-05T15:20:37;10.90;;;4.83;;
8636;SDS011;4356;49.068;8.658;2022-12-05T15:26:03;5.70;;;5.07;;
8636;SDS011;4356;49.068;8.658;2022-12-05T15:28:36;5.13;;;4.50;;
8636;SDS011;4356;49.068;8.658;2022-12-05T15:31:02;6.30;;;5.53;;
8636;SDS011;4356;49.068;8.658;2022-12-05T15:33:28;4.87;;;4.47;;
8636;SDS011;4356;49.068;8.658;2022-12-05T15:35:55;6.07;;;4.47;;
8636;SDS011;4356;49.068;8.658;2022-12-05T15:38:27;4.90;;;4.50;;
8636;SDS011;4356;49.068;8.658;2022-12-05T15:40:56;4.20;;;3.80;;
8636;SDS011;4356;49.068;8.658;2022-12-05T15:43:27;3.73;;;3.53;;
8636;SDS011;4356;49.068;8.658;2022-12-05T15:48:52;3.73;;;3.43;;
8636;SDS011;4356;49.068;8.658;2022-12-05T15:51:20;5.37;;;3.20;;
8636;SDS011;4356;49.068;8.658;2022-12-05T15:56:49;3.30;;;3.00;;
8636;SDS011;4356;49.068;8.658;2022-12-05T15:59:34;3.47;;;2.97;;
8636;SDS011;4356;49.068;8.658;2022-12-05T16:02:13;3.50;;;3.30;;
8636;SDS011;4356;49.068;8.658;2022-12-05T16:04:48;2.90;;;2.70;;
8636;SDS011;4356;49.068;8.658;2022-12-05T16:07:16;3.03;;;2.83;;
8636;SDS011;4356;49.068;8.658;2022-12-05T16:09:43;3.40;;;3.10;;
8636;SDS011;4356;49.068;8.658;2022-12-05T16:14:48;3.30;;;2.97;;
8636;SDS011;4356;49.068;8.658;2022-12-05T16:17:15;2.97;;;2.77;;
8636;SDS011;4356;49.068;8.658;2022-12-05T16:19:41;3.20;;;2.93;;
8636;SDS011;4356;49.068;8.658;2022-12-05T16:22:13;2.93;;;2.73;;
8636;SDS011;4356;49.068;8.658;2022-12-05T16:24:46;3.77;;;3.40;;
8636;SDS011;4356;49.068;8.658;2022-12-05T16:27:28;3.17;;;2.97;;
8636;SDS011;4356;49.068;8.658;2022-12-05T16:30:32;3.63;;;2.93;;
8636;SDS011;4356;49.068;8.658;2022-12-05T16:32:58;3.30;;;3.03;;
8636;SDS011;4356;49.068;8.658;2022-12-05T16:38:08;2.80;;;2.60;;
8636;SDS011;4356;49.068;8.658;2022-12-05T16:40:37;2.97;;;2.80;;
8636;SDS011;4356;49.068;8.658;2022-12-05T16:43:05;3.83;;;3.00;;
8636;SDS011;4356;49.068;8.658;2022-12-05T16:45:45;3.57;;;2.83;;
8636;SDS011;4356;49.068;8.658;2022-12-05T16:50:46;3.07;;;2.80;;
8636;SDS011;4356;49.068;8.658;2022-12-05T16:53:26;2.97;;;2.77;;
8636;SDS011;4356;49.068;8.658;2022-12-05T16:55:53;2.93;;;2.63;;
8636;SDS011;4356;49.068;8.658;2022-12-05T16:58:21;3.37;;;3.00;;
8636;SDS011;4356;49.068;8.658;2022-12-05T17:00:49;3.60;;;3.40;;
8636;SDS011;4356;49.068;8.658;2022-12-05T17:03:15;4.17;;;3.97;;
8636;SDS011;4356;49.068;8.658;2022-12-05T17:05:41;5.80;;;5.30;;
8636;SDS011;4356;49.068;8.658;2022-12-05T17:08:07;6.40;;;5.90;;
8636;SDS011;4356;49.068;8.658;2022-12-05T17:10:32;6.77;;;6.23;;
8636;SDS011;4356;49.068;8.658;2022-12-05T17:12:58;8.27;;;6.73;;
8636;SDS011;4356;49.068;8.658;2022-12-05T17:15:25;7.50;;;6.83;;
8636;SDS011;4356;49.068;8.658;2022-12-05T17:17:50;7.17;;;6.47;;
8636;SDS011;4356;49.068;8.658;2022-12-05T17:20:16;6.03;;;5.53;;
8636;SDS011;4356;49.068;8.658;2022-12-05T17:22:42;6.60;;;6.00;;
8636;SDS011;4356;49.068;8.658;2022-12-05T17:28:00;5.67;;;5.17;;
8636;SDS011;4356;49.068;8.658;2022-12-05T17:30:26;6.07;;;5.57;;
8636;SDS011;4356;49.068;8.658;2022-12-05T17:32:51;5.33;;;4.93;;
8636;SDS011;4356;49.068;8.658;2022-12-05T17:35:18;5.33;;;4.93;;
8636;SDS011;4356;49.068;8.658;2022-12-05T17:37:45;5.03;;;4.63;;
8636;SDS011;4356;49.068;8.658;2022-12-05T17:40:12;4.67;;;4.37;;
8636;SDS011;4356;49.068;8.658;2022-12-05T17:42:40;5.47;;;4.50;;
8636;SDS011;4356;49.068;8.658;2022-12-05T17:45:08;5.40;;;4.80;;
8636;SDS011;4356;49.068;8.658;2022-12-05T17:47:36;6.00;;;5.50;;
8636;SDS011;4356;49.068;8.658;2022-12-05T17:50:02;6.33;;;5.73;;
8636;SDS011;4356;49.068;8.658;2022-12-05T17:52:29;6.53;;;6.00;;
8636;SDS011;4356;49.068;8.658;2022-12-05T17:54:55;5.60;;;5.20;;
8636;SDS011;4356;49.068;8.658;2022-12-05T17:57:20;6.53;;;5.50;;
8636;SDS011;4356;49.068;8.658;2022-12-05T17:59:46;6.23;;;5.73;;
8636;SDS011;4356;49.068;8.658;2022-12-05T18:02:12;6.83;;;6.13;;
8636;SDS011;4356;49.068;8.658;2022-12-05T18:04:37;6.57;;;5.90;;
8636;SDS011;4356;49.068;8.658;2022-12-05T18:07:03;6.60;;;5.73;;
8636;SDS011;4356;49.068;8.658;2022-12-05T18:09:28;6.70;;;6.00;;
8636;SDS011;4356;49.068;8.658;2022-12-05T18:11:55;6.30;;;5.70;;
8636;SDS011;4356;49.068;8.658;2022-12-05T18:14:21;6.57;;;5.33;;
8636;SDS011;4356;49.068;8.658;2022-12-05T18:16:46;6.07;;;5.50;;
8636;SDS011;4356;49.068;8.658;2022-12-05T18:19:12;5.43;;;5.03;;
8636;SDS011;4356;49.068;8.658;2022-12-05T18:21:38;5.60;;;5.10;;
8636;SDS011;4356;49.068;8.658;2022-12-05T18:24:03;6.07;;;5.47;;
8636;SDS011;4356;49.068;8.658;2022-12-05T18:26:29;5.50;;;5.00;;
8636;SDS011;4356;49.068;8.658;2022-12-05T18:28:55;5.60;;;5.20;;
8636;SDS011;4356;49.068;8.658;2022-12-05T18:31:23;4.80;;;4.40;;
8636;SDS011;4356;49.068;8.658;2022-12-05T18:33:48;5.23;;;4.73;;
8636;SDS011;4356;49.068;8.658;2022-12-05T18:36:18;7.30;;;5.83;;
8636;SDS011;4356;49.068;8.658;2022-12-05T18:38:52;4.63;;;4.23;;
8636;SDS011;4356;49.068;8.658;2022-12-05T18:41:19;3.00;;;2.80;;